Time;durP1;ratioP1;P1;durP2;ratioP2;P2;SDS_P1;SDS_P2;PMS_P1;PMS_P2;Temp;Humidity;BMP_temperature;BMP_pressure;BME280_temperature;BME280_humidity;BME280_pressure;Samples;Min_cycle;Max_cycle;Signal;HPM_P1;HPM_P2
2020/12/09 00:02:06;;;;;;;67.03;40.77;;;;;;;2.22;85.96;100643.13;5038590;28;20663;-74
2020/12/09 00:04:32;;;;;;;63.97;39.97;;;;;;;2.32;85.50;100649.53;5040220;28;20167;-74
2020/12/09 00:06:57;;;;;;;64.07;37.40;;;;;;;2.04;86.68;100648.34;5039854;28;20206;-74
2020/12/09 00:09:22;;;;;;;65.17;41.90;;;;;;;2.24;85.65;100653.47;5039731;28;20459;-77
2020/12/09 00:11:52;;;;;;;65.93;41.10;;;;;;;2.19;85.79;100646.44;5040230;28;20170;-71
2020/12/09 00:14:17;;;;;;;68.93;39.63;;;;;;;2.16;85.61;100653.16;5038974;28;20170;-75
2020/12/09 00:16:43;;;;;;;69.70;40.30;;;;;;;1.87;86.71;100654.47;5039614;28;20409;-73
2020/12/09 00:19:08;;;;;;;66.77;39.57;;;;;;;1.77;87.15;100658.34;5039931;28;20173;-74
2020/12/09 00:21:34;;;;;;;66.53;40.07;;;;;;;1.66;87.72;100653.63;5039682;28;20567;-75
2020/12/09 00:24:00;;;;;;;69.10;40.33;;;;;;;1.89;86.91;100651.16;5039319;28;20491;-76
2020/12/09 00:26:26;;;;;;;66.63;38.50;;;;;;;1.82;87.10;100650.00;5039859;28;20456;-76
2020/12/09 00:28:52;;;;;;;71.60;39.60;;;;;;;2.12;86.49;100652.13;5039312;28;20409;-75
2020/12/09 00:31:24;;;;;;;65.83;38.87;;;;;;;2.15;86.21;100656.53;5038692;28;20405;-74
2020/12/09 00:33:50;;;;;;;65.93;40.50;;;;;;;2.15;86.27;100651.38;5039686;28;20409;-76
2020/12/09 00:36:16;;;;;;;66.60;39.30;;;;;;;2.11;86.26;100645.25;5039233;28;20671;-75
2020/12/09 00:38:43;;;;;;;66.27;40.17;;;;;;;1.92;86.79;100643.59;5039024;28;20413;-75
2020/12/09 00:41:13;;;;;;;66.53;37.70;;;;;;;1.63;87.54;100644.88;5039198;28;20404;-74
2020/12/09 00:43:38;;;;;;;73.17;41.17;;;;;;;1.90;86.69;100637.50;5039049;28;20413;-72
2020/12/09 00:46:03;;;;;;;65.43;39.03;;;;;;;1.97;86.17;100636.94;5038975;28;20734;-75
2020/12/09 00:48:29;;;;;;;64.43;38.40;;;;;;;2.18;85.76;100636.97;5038107;28;20189;-79
2020/12/09 00:50:54;;;;;;;61.00;38.00;;;;;;;2.33;85.34;100639.31;5038289;28;20167;-74
2020/12/09 00:53:20;;;;;;;58.87;38.00;;;;;;;2.05;86.09;100633.84;5037974;28;20178;-72
2020/12/09 00:55:45;;;;;;;65.97;39.73;;;;;;;1.73;87.29;100648.72;5038578;28;20166;-72
2020/12/09 00:58:11;;;;;;;67.40;40.20;;;;;;;1.55;88.34;100652.25;5028880;28;20181;-70
2020/12/09 01:00:36;;;;;;;65.70;38.10;;;;;;;1.55;88.33;100652.25;5030413;28;20564;-72
2020/12/09 01:03:02;;;;;;;60.70;36.00;;;;;;;1.49;88.52;100652.84;5027968;28;20236;-71
2020/12/09 01:05:28;;;;;;;70.20;38.70;;;;;;;1.56;88.24;100643.72;5028977;28;20258;-72
2020/12/09 01:07:53;;;;;;;70.30;39.40;;;;;;;1.52;88.29;100645.28;5026748;28;20242;-72
2020/12/09 01:10:18;;;;;;;66.93;40.37;;;;;;;1.63;88.40;100650.88;5029230;28;20179;-74
2020/12/09 01:12:44;;;;;;;60.97;34.97;;;;;;;1.56;88.02;100648.00;5023440;28;20198;-74
2020/12/09 01:15:09;;;;;;;63.70;37.83;;;;;;;1.45;88.99;100658.66;5017473;28;20562;-74
2020/12/09 01:17:35;;;;;;;67.30;39.70;;;;;;;1.30;89.09;100661.41;5027203;28;20179;-71
2020/12/09 01:20:02;;;;;;;68.77;36.97;;;;;;;1.52;88.85;100664.97;5025692;28;20174;-71
2020/12/09 01:22:28;;;;;;;69.27;39.57;;;;;;;1.54;88.81;100660.75;5026817;28;20175;-70
2020/12/09 01:24:53;;;;;;;62.43;36.10;;;;;;;1.49;88.45;100658.00;5026712;28;20471;-69
2020/12/09 01:27:24;;;;;;;81.17;37.83;;;;;;;1.34;89.06;100658.19;5026061;28;20518;-71
2020/12/09 01:29:51;;;;;;;76.90;37.77;;;;;;;1.40;89.58;100651.56;5026719;28;20186;-71
2020/12/09 01:32:17;;;;;;;64.10;37.00;;;;;;;1.52;88.94;100650.41;5030625;28;20425;-72
2020/12/09 01:34:42;;;;;;;67.63;38.20;;;;;;;1.64;88.52;100652.66;5021722;28;20445;-70
2020/12/09 01:37:07;;;;;;;63.93;38.60;;;;;;;1.72;87.63;100662.38;5017311;28;20163;-73
2020/12/09 01:39:33;;;;;;;64.33;36.40;;;;;;;1.76;87.76;100652.31;5017850;28;20509;-72
2020/12/09 01:41:58;;;;;;;66.73;37.57;;;;;;;1.56;88.62;100655.72;5018193;28;20175;-72
2020/12/09 01:44:24;;;;;;;66.97;37.40;;;;;;;2.41;91.03;100649.91;5018493;28;20183;-64
2020/12/09 01:46:50;;;;;;;50.97;32.03;;;;;;;7.13;82.18;100644.09;5018079;28;20241;-67
2020/12/09 01:49:15;;;;;;;57.07;34.93;;;;;;;3.87;77.25;100656.31;5017930;28;20458;-74
2020/12/09 01:51:41;;;;;;;54.57;34.87;;;;;;;2.82;82.47;100665.28;5018445;28;20433;-76
2020/12/09 01:54:06;;;;;;;54.03;35.47;;;;;;;2.01;85.30;100664.53;5018105;28;20421;-78
2020/12/09 01:56:31;;;;;;;61.40;36.37;;;;;;;2.14;85.62;100681.38;5018121;28;20242;-78
2020/12/09 01:58:57;;;;;;;58.07;36.40;;;;;;;1.79;87.41;100674.72;5018378;28;20426;-78
2020/12/09 02:01:23;;;;;;;59.27;35.63;;;;;;;1.83;87.26;100679.19;5017945;28;20245;-77
2020/12/09 02:03:49;;;;;;;63.43;35.63;;;;;;;1.73;87.01;100671.84;5017676;28;20171;-78
2020/12/09 02:06:15;;;;;;;66.07;37.37;;;;;;;1.54;88.78;100676.16;5018231;28;20446;-77
2020/12/09 02:08:41;;;;;;;67.33;36.53;;;;;;;1.46;88.94;100682.66;5017785;28;20417;-78
2020/12/09 02:11:07;;;;;;;60.10;35.00;;;;;;;1.44;88.41;100684.28;5017848;28;20426;-78
2020/12/09 02:13:33;;;;;;;63.77;34.17;;;;;;;1.52;89.06;100682.94;5017476;28;20163;-77
2020/12/09 02:15:59;;;;;;;63.10;35.97;;;;;;;1.92;87.66;100678.69;5017683;28;20414;-76
2020/12/09 02:18:41;;;;;;;58.80;34.03;;;;;;;1.76;87.89;100682.28;5016937;28;20171;-77
2020/12/09 02:21:07;;;;;;;63.67;35.83;;;;;;;2.00;87.36;100678.22;5017864;28;20706;-77
2020/12/09 02:23:32;;;;;;;62.57;35.13;;;;;;;1.56;88.47;100679.69;5016766;28;20508;-78
2020/12/09 02:25:58;;;;;;;62.37;37.97;;;;;;;1.68;88.86;100672.53;5017977;28;20294;-76
2020/12/09 02:28:23;;;;;;;65.13;37.20;;;;;;;1.70;88.44;100677.75;5017490;28;20178;-77
2020/12/09 02:30:48;;;;;;;62.90;33.47;;;;;;;1.40;89.08;100688.41;5017351;28;20186;-77
2020/12/09 02:33:13;;;;;;;67.90;37.37;;;;;;;1.54;89.15;100676.16;5017836;28;20195;-77
2020/12/09 02:35:39;;;;;;;77.17;36.80;;;;;;;1.28;89.39;100673.28;5017343;28;20265;-77
2020/12/09 02:38:04;;;;;;;58.57;31.43;;;;;;;1.29;89.36;100669.06;5017448;28;20270;-77
2020/12/09 02:40:29;;;;;;;75.70;35.57;;;;;;;1.36;89.85;100670.22;5017484;28;20321;-78
2020/12/09 02:42:55;;;;;;;61.07;35.23;;;;;;;1.61;89.31;100657.66;5017331;28;20421;-76
2020/12/09 02:45:20;;;;;;;67.10;37.30;;;;;;;1.73;87.93;100652.16;5017231;28;20205;-76
2020/12/09 02:47:46;;;;;;;61.53;34.50;;;;;;;1.83;88.04;100656.91;5017553;28;20289;-77
2020/12/09 02:50:12;;;;;;;64.00;34.10;;;;;;;1.83;87.22;100663.75;5017161;28;20418;-77
2020/12/09 02:52:37;;;;;;;67.77;35.60;;;;;;;1.55;88.81;100652.25;5017236;28;20265;-77
2020/12/09 02:55:03;;;;;;;66.07;36.00;;;;;;;1.42;89.15;100657.63;5017714;28;20555;-78
2020/12/09 02:57:28;;;;;;;64.53;35.80;;;;;;;1.57;88.48;100654.88;5017267;28;20179;-78
2020/12/09 02:59:53;;;;;;;62.40;34.00;;;;;;;1.37;89.38;100664.25;5017153;28;20202;-77
2020/12/09 03:02:19;;;;;;;70.23;36.23;;;;;;;1.48;89.73;100660.50;5017492;28;20174;-77
2020/12/09 03:04:44;;;;;;;66.77;36.23;;;;;;;1.37;89.50;100659.13;5017112;28;20217;-77
2020/12/09 03:07:10;;;;;;;61.20;34.57;;;;;;;1.33;90.09;100666.69;5017116;28;20849;-76
2020/12/09 03:09:35;;;;;;;71.97;35.90;;;;;;;1.73;89.41;100667.59;5017390;28;20198;-75
2020/12/09 03:12:00;;;;;;;62.63;35.17;;;;;;;1.56;89.13;100666.84;5017087;28;20238;-77
2020/12/09 03:14:26;;;;;;;61.47;35.37;;;;;;;1.68;89.16;100659.69;5017025;28;20214;-77
2020/12/09 03:16:52;;;;;;;61.10;34.73;;;;;;;1.70;88.57;100662.31;5017162;28;20167;-77
2020/12/09 03:19:17;;;;;;;66.83;37.47;;;;;;;1.58;89.18;100667.78;5016885;28;20612;-77
2020/12/09 03:21:43;;;;;;;63.37;35.53;;;;;;;1.65;88.62;100659.56;5017016;28;20571;-77
2020/12/09 03:24:09;;;;;;;68.80;36.77;;;;;;;1.57;89.26;100660.91;5016733;28;20631;-77
2020/12/09 03:26:34;;;;;;;74.10;36.00;;;;;;;1.65;88.91;100658.66;5017003;28;20215;-76
2020/12/09 03:29:00;;;;;;;63.60;32.13;;;;;;;1.67;87.91;100657.91;5016962;28;20467;-77
2020/12/09 03:31:25;;;;;;;63.77;35.53;;;;;;;1.73;88.22;100667.59;5016762;28;20190;-76
2020/12/09 03:33:50;;;;;;;65.43;35.43;;;;;;;1.75;87.97;100665.13;5016685;28;20210;-76
2020/12/09 03:36:16;;;;;;;61.80;32.97;;;;;;;1.58;88.39;100666.91;5019793;28;20265;-77
2020/12/09 03:38:41;;;;;;;68.90;36.07;;;;;;;1.62;88.06;100663.69;5020446;28;20456;-77
2020/12/09 03:41:06;;;;;;;57.63;31.80;;;;;;;1.52;88.19;100665.81;5020543;28;20221;-77
2020/12/09 03:43:32;;;;;;;57.07;32.90;;;;;;;1.58;87.87;100667.78;5020873;28;20194;-77
2020/12/09 03:45:57;;;;;;;64.20;33.10;;;;;;;1.74;87.73;100658.22;5020223;28;20203;-77
2020/12/09 03:48:22;;;;;;;56.80;32.43;;;;;;;1.74;87.13;100658.22;5020348;28;20179;-77
2020/12/09 03:50:48;;;;;;;59.13;33.83;;;;;;;1.64;87.25;100665.50;5020846;28;20525;-77
2020/12/09 03:53:13;;;;;;;62.63;33.10;;;;;;;1.61;87.46;100673.09;5020647;28;20258;-78
2020/12/09 03:55:38;;;;;;;61.10;33.10;;;;;;;1.94;86.35;100670.22;5020267;28;20236;-78
2020/12/09 03:58:04;;;;;;;54.40;31.33;;;;;;;1.92;86.36;100689.88;5020520;28;20175;-78
2020/12/09 04:00:29;;;;;;;54.40;32.10;;;;;;;2.14;86.08;100688.22;5020012;28;20179;-78
2020/12/09 04:02:55;;;;;;;49.90;30.40;;;;;;;2.07;85.62;100686.19;5020248;28;20583;-78
2020/12/09 04:05:20;;;;;;;60.37;32.77;;;;;;;2.11;85.37;100695.78;5020242;28;20171;-78
2020/12/09 04:07:46;;;;;;;54.70;34.73;;;;;;;2.14;85.32;100701.09;5020056;28;20629;-77
2020/12/09 04:10:11;;;;;;;55.37;34.57;;;;;;;2.30;85.15;100702.59;5020091;28;20638;-79
2020/12/09 04:12:36;;;;;;;58.00;33.83;;;;;;;1.97;85.90;100695.19;5019783;28;20171;-78
2020/12/09 04:15:02;;;;;;;68.70;37.00;;;;;;;1.70;87.34;100705.16;5020082;28;20175;-77
2020/12/09 04:17:27;;;;;;;55.80;30.40;;;;;;;1.51;88.11;100702.59;5019982;28;20442;-77
2020/12/09 04:19:53;;;;;;;64.93;34.17;;;;;;;1.73;88.72;100692.41;5020223;28;20428;-78
2020/12/09 04:22:18;;;;;;;68.90;36.20;;;;;;;1.75;87.85;100696.81;5019843;28;20501;-77
2020/12/09 04:24:43;;;;;;;65.03;34.73;;;;;;;1.89;87.71;100705.13;5019784;28;20306;-77
2020/12/09 04:27:09;;;;;;;69.00;34.63;;;;;;;1.81;87.37;100707.38;5020143;28;20467;-77
2020/12/09 04:29:34;;;;;;;62.40;34.53;;;;;;;1.98;87.36;100702.97;5019701;28;20207;-78
2020/12/09 04:31:59;;;;;;;69.90;35.00;;;;;;;1.64;87.80;100706.63;5019775;28;20203;-78
2020/12/09 04:34:26;;;;;;;61.90;34.17;;;;;;;1.74;88.08;100697.63;5019944;28;20472;-77
2020/12/09 04:36:51;;;;;;;63.60;35.93;;;;;;;1.90;87.07;100695.75;5019759;28;20193;-77
2020/12/09 04:39:17;;;;;;;60.03;35.30;;;;;;;1.87;86.91;100691.34;5019571;28;20414;-76
2020/12/09 04:41:43;;;;;;;70.17;35.67;;;;;;;1.60;87.61;100702.16;5019781;28;20210;-77
2020/12/09 04:44:09;;;;;;;63.93;34.23;;;;;;;1.66;87.88;100697.31;5019251;28;20418;-78
2020/12/09 04:46:36;;;;;;;67.33;35.90;;;;;;;1.77;88.26;100696.88;5017985;28;20512;-77
2020/12/09 04:49:07;;;;;;;64.50;34.30;;;;;;;1.69;87.85;100688.81;5018808;28;20185;-78
2020/12/09 04:51:47;;;;;;;57.97;33.70;;;;;;;1.67;88.39;100686.19;5018719;28;20724;-76
2020/12/09 04:54:14;;;;;;;67.13;34.93;;;;;;;2.06;87.22;100681.84;5018694;28;20413;-76
2020/12/09 04:57:06;;;;;;;59.63;34.23;;;;;;;1.89;86.55;100682.00;5019219;28;20682;-77
2020/12/09 04:59:38;;;;;;;63.40;35.30;;;;;;;1.81;87.28;100688.50;5019195;28;20422;-77
2020/12/09 05:02:05;;;;;;;68.10;35.47;;;;;;;1.72;87.68;100681.28;5019018;28;20469;-78
2020/12/09 05:04:32;;;;;;;63.57;35.20;;;;;;;1.78;87.48;100680.66;5019092;28;20517;-77
2020/12/09 05:07:05;;;;;;;60.57;33.83;;;;;;;1.76;87.87;100685.75;5018480;28;20535;-78
2020/12/09 05:09:34;;;;;;;62.97;34.50;;;;;;;1.73;87.80;100685.56;5018727;28;20809;-77
2020/12/09 05:12:06;;;;;;;63.37;30.70;;;;;;;1.73;87.19;100692.41;5018942;28;20661;-77
2020/12/09 05:14:33;;;;;;;64.43;35.50;;;;;;;1.67;87.48;100693.03;5018658;28;20418;-77
2020/12/09 05:16:59;;;;;;;55.03;29.70;;;;;;;1.61;88.38;100693.63;5019205;28;20453;-77
2020/12/09 05:19:26;;;;;;;64.53;35.70;;;;;;;1.91;87.43;100698.38;5018734;28;20433;-78
2020/12/09 05:21:52;;;;;;;61.00;33.50;;;;;;;1.73;87.58;100692.41;5018520;28;20497;-77
2020/12/09 05:24:20;;;;;;;65.50;33.33;;;;;;;1.85;87.47;100698.09;5018675;28;20812;-77
2020/12/09 05:26:46;;;;;;;60.33;33.43;;;;;;;1.92;86.85;100694.09;5018471;28;20479;-77
2020/12/09 05:29:16;;;;;;;64.33;35.20;;;;;;;1.92;87.10;100706.97;5018623;28;20414;-76
2020/12/09 05:31:43;;;;;;;56.10;32.27;;;;;;;1.83;86.67;100708.31;5018498;28;20167;-76
2020/12/09 05:34:24;;;;;;;62.30;34.80;;;;;;;2.13;86.08;100725.03;5018251;28;20425;-76
2020/12/09 05:36:51;;;;;;;56.53;31.73;;;;;;;2.01;85.83;100727.94;5017634;28;20414;-76
2020/12/09 05:39:16;;;;;;;57.73;33.97;;;;;;;2.16;86.58;100720.00;5018130;28;20410;-76
2020/12/09 05:41:42;;;;;;;55.13;32.10;;;;;;;1.95;86.11;100725.09;5018237;28;20532;-77
2020/12/09 05:44:07;;;;;;;59.47;32.70;;;;;;;1.93;86.35;100730.16;5018245;28;20198;-78
2020/12/09 05:46:32;;;;;;;55.63;32.40;;;;;;;2.11;85.67;100731.78;5018511;28;20587;-77
2020/12/09 05:48:58;;;;;;;54.77;33.07;;;;;;;2.15;84.78;100736.25;5017991;28;20575;-77
2020/12/09 05:51:23;;;;;;;60.40;32.47;;;;;;;2.26;85.06;100739.28;5018214;28;20186;-78
2020/12/09 05:53:49;;;;;;;61.57;34.10;;;;;;;2.15;85.06;100732.00;5018356;28;20409;-77
2020/12/09 05:56:16;;;;;;;55.70;33.70;;;;;;;2.11;86.04;100739.50;5018050;28;20175;-78
2020/12/09 05:58:46;;;;;;;63.53;34.57;;;;;;;1.98;85.90;100738.09;5017774;28;20199;-78
2020/12/09 06:01:23;;;;;;;68.30;34.40;;;;;;;1.94;86.13;100726.78;5018244;28;20869;-77
2020/12/09 06:03:49;;;;;;;57.80;32.97;;;;;;;2.00;86.19;100719.38;5017912;28;20418;-77
2020/12/09 06:06:22;;;;;;;56.97;34.70;;;;;;;2.04;86.10;100724.63;5017818;28;20457;-78
2020/12/09 06:08:50;;;;;;;54.23;32.47;;;;;;;1.98;85.94;100715.81;5017527;28;20547;-77
2020/12/09 06:11:24;;;;;;;57.93;33.00;;;;;;;1.97;86.11;100715.75;5017728;28;20429;-76
2020/12/09 06:13:49;;;;;;;59.37;33.77;;;;;;;2.07;85.77;100709.31;5017618;28;20501;-77
2020/12/09 06:16:18;;;;;;;55.10;32.87;;;;;;;2.21;85.73;100707.38;5017601;28;20879;-77
2020/12/09 06:18:45;;;;;;;56.20;31.90;;;;;;;2.05;85.68;100698.13;5017694;28;20171;-76
2020/12/09 06:21:11;;;;;;;51.27;28.33;;;;;;;1.78;86.70;100706.38;5017557;28;20449;-78
2020/12/09 06:23:36;;;;;;;60.60;32.90;;;;;;;1.84;86.77;100701.47;5017557;28;20494;-77
2020/12/09 06:26:03;;;;;;;61.93;35.37;;;;;;;1.90;87.18;100701.75;5017387;28;20199;-78
2020/12/09 06:28:31;;;;;;;53.23;29.70;;;;;;;1.84;86.87;100704.94;5017261;28;20209;-78
2020/12/09 06:30:58;;;;;;;57.83;33.20;;;;;;;1.96;86.25;100707.19;5017381;28;20738;-77
2020/12/09 06:33:35;;;;;;;62.63;30.80;;;;;;;1.88;86.56;100703.41;5017402;28;20417;-77
2020/12/09 06:36:20;;;;;;;65.50;33.77;;;;;;;1.90;86.87;100698.31;5017288;28;20484;-78
2020/12/09 06:39:04;;;;;;;60.17;32.40;;;;;;;1.96;86.82;100702.03;5017279;28;20427;-77
2020/12/09 06:41:30;;;;;;;64.73;35.80;;;;;;;1.98;86.62;100715.81;5017225;28;20425;-76
2020/12/09 06:44:09;;;;;;;67.13;35.53;;;;;;;1.97;86.80;100713.19;5017217;28;20437;-77
2020/12/09 06:46:39;;;;;;;64.13;36.33;;;;;;;1.94;87.22;100720.78;5017210;28;20213;-78
2020/12/09 06:49:05;;;;;;;65.10;33.90;;;;;;;1.94;87.17;100724.22;5016177;28;20425;-77
2020/12/09 06:51:38;;;;;;;56.67;33.23;;;;;;;2.02;86.67;100722.00;5016013;28;21034;-78
2020/12/09 06:54:14;;;;;;;63.80;35.70;;;;;;;2.01;86.50;100738.22;5017053;28;20433;-78
2020/12/09 06:56:39;;;;;;;71.57;35.87;;;;;;;2.13;86.07;100732.75;5017139;28;20833;-77
2020/12/09 06:59:24;;;;;;;57.70;33.80;;;;;;;1.92;86.48;100728.44;5017307;28;20425;-78
2020/12/09 07:02:03;;;;;;;59.50;32.93;;;;;;;2.03;85.92;100731.47;5017143;28;20228;-78
2020/12/09 07:04:58;;;;;;;67.27;37.00;;;;;;;2.04;86.65;100728.06;5017096;28;20692;-78
2020/12/09 07:07:49;;;;;;;56.13;32.17;;;;;;;2.17;85.71;100742.34;5018379;28;20474;-76
2020/12/09 07:10:17;;;;;;;67.23;34.63;;;;;;;2.13;85.64;100737.91;5018262;28;20422;-76
2020/12/09 07:12:43;;;;;;;58.63;32.83;;;;;;;2.38;84.84;100736.38;5021032;28;20418;-76
2020/12/09 07:15:08;;;;;;;58.93;32.07;;;;;;;2.14;85.33;100737.09;5021129;28;20432;-77
2020/12/09 07:17:34;;;;;;;56.47;33.27;;;;;;;2.35;84.82;100745.75;5021470;28;20167;-77
2020/12/09 07:19:59;;;;;;;52.20;33.30;;;;;;;2.41;84.93;100739.06;5020927;28;20840;-79
2020/12/09 07:22:26;;;;;;;61.70;35.07;;;;;;;2.53;84.03;100730.19;5021084;28;20174;-78
2020/12/09 07:24:52;;;;;;;61.30;34.57;;;;;;;2.37;84.22;100727.78;5020023;28;20219;-79
2020/12/09 07:27:19;;;;;;;56.17;33.07;;;;;;;2.47;84.75;100726.47;5020853;28;20572;-78
2020/12/09 07:29:46;;;;;;;61.00;35.37;;;;;;;2.58;83.40;100725.22;5021406;28;20175;-78
2020/12/09 07:32:16;;;;;;;53.23;33.37;;;;;;;2.17;85.43;100729.50;5020851;28;20428;-79
2020/12/09 07:34:58;;;;;;;57.17;35.60;;;;;;;2.22;85.56;100735.72;5020551;28;20467;-79
2020/12/09 07:37:26;;;;;;;56.27;32.77;;;;;;;2.18;85.75;100741.56;5020657;28;20425;-78
2020/12/09 07:39:53;;;;;;;60.03;35.47;;;;;;;2.14;86.39;100734.53;5020508;28;20436;-77
2020/12/09 07:42:21;;;;;;;60.40;32.53;;;;;;;2.19;86.08;100738.16;5020614;28;20414;-78
2020/12/09 07:44:48;;;;;;;63.00;35.07;;;;;;;2.21;85.31;100733.09;5020388;28;20795;-78
2020/12/09 07:47:20;;;;;;;58.13;34.40;;;;;;;2.30;85.99;100726.66;5020818;28;20461;-77
2020/12/09 07:49:51;;;;;;;55.90;32.00;;;;;;;2.16;86.11;100726.03;5020163;28;20421;-78
2020/12/09 07:52:21;;;;;;;57.70;34.70;;;;;;;2.11;86.69;100730.13;5020396;28;20424;-79
2020/12/09 07:54:46;;;;;;;57.90;35.30;;;;;;;2.14;86.54;100724.22;5020471;28;20437;-76
2020/12/09 07:57:11;;;;;;;62.43;35.27;;;;;;;2.21;86.02;100738.25;5020402;28;20418;-77
2020/12/09 07:59:37;;;;;;;61.30;34.00;;;;;;;2.33;85.71;100731.03;5019904;28;20181;-78
2020/12/09 08:02:21;;;;;;;59.97;35.63;;;;;;;2.27;85.89;100718.78;5020242;28;20237;-77
2020/12/09 08:04:48;;;;;;;59.33;32.40;;;;;;;1.99;86.37;100727.00;5019486;28;20174;-77
2020/12/09 08:07:18;;;;;;;62.90;32.07;;;;;;;2.09;86.19;100733.44;5019960;28;20469;-77
2020/12/09 08:10:04;;;;;;;60.23;34.77;;;;;;;2.08;86.30;100723.94;5019916;28;20428;-76
2020/12/09 08:12:29;;;;;;;63.33;33.23;;;;;;;2.30;86.40;100738.59;5020008;28;20425;-76
2020/12/09 08:14:54;;;;;;;53.53;32.10;;;;;;;2.22;85.12;100729.69;5019208;28;20418;-76
2020/12/09 08:17:29;;;;;;;56.37;33.67;;;;;;;2.28;84.86;100725.69;5020313;28;20181;-78
2020/12/09 08:20:03;;;;;;;53.73;32.80;;;;;;;2.15;85.74;100731.13;5019987;28;20604;-77
2020/12/09 08:22:28;;;;;;;51.90;31.30;;;;;;;2.31;84.95;100722.38;5018715;28;20421;-76
2020/12/09 08:25:08;;;;;;;57.00;34.80;;;;;;;2.36;84.70;100736.31;5019657;28;20862;-76
2020/12/09 08:27:41;;;;;;;56.50;31.77;;;;;;;2.31;85.31;100738.69;5019706;28;20214;-76
2020/12/09 08:30:08;;;;;;;53.67;30.77;;;;;;;2.43;84.96;100734.88;5019795;28;20418;-76
2020/12/09 08:32:59;;;;;;;56.93;32.07;;;;;;;2.29;85.13;100740.31;5021352;28;20422;-76
2020/12/09 08:35:24;;;;;;;59.80;33.57;;;;;;;2.36;85.06;100739.75;5036855;28;20452;-79
2020/12/09 08:37:50;;;;;;;53.20;31.13;;;;;;;2.41;85.57;100736.50;5019072;28;20433;-73
2020/12/09 08:40:15;;;;;;;52.97;32.70;;;;;;;2.35;86.10;100737.13;5027220;28;20435;-76
2020/12/09 08:42:59;;;;;;;63.23;33.83;;;;;;;2.23;85.78;100752.03;5038936;28;20474;-76
2020/12/09 08:45:25;;;;;;;55.93;32.63;;;;;;;2.30;86.33;100754.03;5038911;28;20182;-77
2020/12/09 08:47:50;;;;;;;56.93;32.90;;;;;;;2.33;85.51;100744.78;5038364;28;20479;-77
2020/12/09 08:50:15;;;;;;;51.63;32.73;;;;;;;2.61;85.66;100740.81;5039430;28;20427;-78
2020/12/09 08:52:41;;;;;;;59.57;33.50;;;;;;;2.70;84.18;100743.75;5038632;28;20174;-76
2020/12/09 08:55:06;;;;;;;50.53;33.63;;;;;;;3.01;82.87;100742.44;5029151;28;20205;-76
2020/12/09 08:57:32;;;;;;;54.97;32.83;;;;;;;2.84;82.56;100753.75;5037534;28;20166;-77
2020/12/09 08:59:57;;;;;;;49.30;31.17;;;;;;;3.17;83.64;100753.38;5032099;28;20193;-78
2020/12/09 09:02:23;;;;;;;57.10;31.33;;;;;;;2.95;83.13;100751.59;5035584;28;20185;-73
2020/12/09 09:04:48;;;;;;;48.30;30.97;;;;;;;2.84;82.38;100748.59;5053468;28;20182;-73
2020/12/09 09:07:13;;;;;;;51.07;32.53;;;;;;;2.67;83.76;100751.34;5037344;28;20213;-78
2020/12/09 09:09:39;;;;;;;55.00;31.67;;;;;;;2.51;84.19;100748.94;5037320;28;20254;-78
2020/12/09 09:12:04;;;;;;;47.83;30.00;;;;;;;2.24;85.30;100749.53;5034011;28;20701;-76
2020/12/09 09:14:31;;;;;;;47.13;28.33;;;;;;;2.25;85.26;100753.84;5036406;28;20266;-77
2020/12/09 09:16:57;;;;;;;47.07;30.97;;;;;;;2.26;85.05;100747.91;5037427;28;20202;-75
2020/12/09 09:19:22;;;;;;;48.20;30.10;;;;;;;2.48;84.67;100749.69;5036184;28;20463;-76
2020/12/09 09:21:47;;;;;;;45.60;29.57;;;;;;;2.39;84.28;100748.44;5028592;28;20254;-76
2020/12/09 09:24:13;;;;;;;46.87;28.67;;;;;;;2.27;85.17;100749.66;5028513;28;20279;-76
2020/12/09 09:26:38;;;;;;;48.10;26.83;;;;;;;2.24;85.16;100744.38;5033456;28;20232;-76
2020/12/09 09:29:03;;;;;;;49.53;29.30;;;;;;;2.21;85.37;100744.25;5032292;28;20547;-74
2020/12/09 09:31:29;;;;;;;48.50;29.37;;;;;;;2.31;85.39;100731.00;5025756;28;20178;-71
2020/12/09 09:33:54;;;;;;;48.90;29.07;;;;;;;2.31;85.24;100724.94;5025694;28;20240;-72
2020/12/09 09:36:19;;;;;;;51.57;32.13;;;;;;;2.39;84.51;100728.72;5027413;28;20293;-73
2020/12/09 09:38:45;;;;;;;51.30;31.37;;;;;;;2.50;84.28;100731.75;5026525;28;20197;-70
2020/12/09 09:41:10;;;;;;;50.30;30.27;;;;;;;2.36;84.95;100729.47;5027453;28;20170;-75
2020/12/09 09:43:35;;;;;;;46.70;28.73;;;;;;;2.34;85.05;100737.94;5026948;28;20179;-76
2020/12/09 09:46:01;;;;;;;52.33;31.67;;;;;;;2.30;85.55;100731.78;5025557;28;20310;-75
2020/12/09 09:48:26;;;;;;;49.60;31.47;;;;;;;2.42;84.90;100736.59;5030296;28;20181;-75
2020/12/09 09:50:52;;;;;;;56.03;30.63;;;;;;;2.30;85.21;100748.91;5036310;28;20200;-76
2020/12/09 09:53:17;;;;;;;49.33;30.30;;;;;;;2.32;85.39;100753.31;5029752;28;20429;-76
2020/12/09 09:55:43;;;;;;;49.47;28.67;;;;;;;2.31;85.19;100750.66;5036547;28;20177;-77
2020/12/09 09:58:08;;;;;;;50.27;31.47;;;;;;;2.44;84.57;100747.81;5036519;28;20491;-77
2020/12/09 10:00:33;;;;;;;50.00;28.47;;;;;;;2.31;84.79;100754.13;5036534;28;20166;-80
2020/12/09 10:02:59;;;;;;;50.40;30.30;;;;;;;2.44;84.53;100759.81;5036775;28;20193;-80
2020/12/09 10:05:25;;;;;;;54.70;29.93;;;;;;;2.30;85.86;100759.19;5035863;28;20825;-80
2020/12/09 10:07:50;;;;;;;46.23;29.87;;;;;;;2.49;84.78;100763.44;5036114;28;20202;-77
2020/12/09 10:10:15;;;;;;;51.20;32.53;;;;;;;2.44;84.75;100763.25;5030041;28;20178;-75
2020/12/09 10:12:41;;;;;;;48.37;28.70;;;;;;;2.42;85.18;100766.56;5032673;28;20183;-78
2020/12/09 10:15:06;;;;;;;49.80;30.00;;;;;;;2.32;84.99;100763.59;5026221;28;20499;-78
2020/12/09 10:17:31;;;;;;;50.03;30.60;;;;;;;2.23;85.04;100758.03;5028625;28;20163;-77
2020/12/09 10:19:58;;;;;;;57.47;31.30;;;;;;;2.28;85.70;100761.69;5029831;28;20189;-76
2020/12/09 10:22:23;;;;;;;64.50;36.47;;;;;;;2.63;84.46;100766.63;5035773;28;20174;-76
2020/12/09 10:24:48;;;;;;;56.80;31.20;;;;;;;2.48;84.17;100769.41;5036091;28;20472;-81
2020/12/09 10:27:14;;;;;;;53.30;31.50;;;;;;;2.68;84.35;100768.56;5036471;28;20205;-79
2020/12/09 10:29:39;;;;;;;57.20;31.73;;;;;;;2.59;84.15;100770.75;5035988;28;20178;-79
2020/12/09 10:32:04;;;;;;;49.63;30.17;;;;;;;2.56;84.48;100768.03;5035611;28;20181;-81
2020/12/09 10:34:30;;;;;;;50.87;30.93;;;;;;;2.70;84.38;100769.50;5034715;28;20206;-82
2020/12/09 10:36:55;;;;;;;58.93;33.20;;;;;;;2.78;83.52;100764.66;5036424;28;20189;-78
2020/12/09 10:39:23;;;;;;;52.97;31.17;;;;;;;2.65;83.88;100759.81;5035697;28;20185;-83
2020/12/09 10:41:49;;;;;;;58.80;33.27;;;;;;;2.69;83.33;100760.03;5029367;28;20316;-81
2020/12/09 10:44:15;;;;;;;54.80;32.77;;;;;;;2.46;84.33;100763.31;5029375;28;20429;-77
2020/12/09 10:46:41;;;;;;;59.40;34.97;;;;;;;2.36;84.75;100768.06;5029409;28;20763;-75
2020/12/09 10:49:09;;;;;;;55.23;32.80;;;;;;;2.36;85.23;100750.03;5027079;28;20205;-75
2020/12/09 10:51:42;;;;;;;56.80;31.83;;;;;;;2.53;84.56;100749.91;5027706;28;20171;-75
2020/12/09 10:54:08;;;;;;;54.13;33.57;;;;;;;2.81;84.50;100751.03;5027292;28;20429;-75
2020/12/09 10:56:33;;;;;;;57.13;33.07;;;;;;;2.77;83.74;100744.00;5023275;28;20546;-73
2020/12/09 10:58:58;;;;;;;60.30;33.43;;;;;;;2.82;83.70;100747.66;5035136;28;20206;-76
2020/12/09 11:01:25;;;;;;;57.27;31.50;;;;;;;3.01;82.92;100747.59;5034678;28;20219;-75
2020/12/09 11:03:51;;;;;;;54.03;33.87;;;;;;;3.27;82.19;100754.59;5023769;28;20224;-74
2020/12/09 11:06:16;;;;;;;52.10;31.47;;;;;;;2.88;82.96;100760.78;5036678;28;20453;-76
2020/12/09 11:08:41;;;;;;;56.40;33.30;;;;;;;2.92;82.64;100764.34;5015916;28;20174;-74
2020/12/09 11:11:07;;;;;;;58.10;33.20;;;;;;;2.94;81.95;100763.59;5015402;28;20254;-74
2020/12/09 11:13:32;;;;;;;56.40;34.07;;;;;;;3.13;81.96;100751.50;5016960;28;20237;-84
2020/12/09 11:15:57;;;;;;;54.40;35.07;;;;;;;2.93;83.42;100751.53;5016436;28;20190;-82
2020/12/09 11:18:23;;;;;;;57.77;34.27;;;;;;;3.12;82.96;100747.16;5016938;28;20241;-81